createdAt,value
2019-05-21T00:02:23.718Z,100971.83
2019-05-21T00:04:56.016Z,100972.44
2019-05-21T00:07:28.393Z,100978.45
2019-05-21T00:10:00.898Z,100973.16
2019-05-21T00:12:33.001Z,100967.06
2019-05-21T00:15:05.696Z,100965.01
2019-05-21T00:17:38.027Z,100958.84
2019-05-21T00:20:10.864Z,100958.61
2019-05-21T00:22:43.210Z,100958.76
2019-05-21T00:25:17.281Z,100968.13
2019-05-21T00:27:49.354Z,100965.68
2019-05-21T00:31:13.959Z,100954.99
2019-05-21T00:34:43.863Z,100955.59
2019-05-21T00:38:04.324Z,100955.06
2019-05-21T00:41:28.982Z,100963.53
2019-05-21T00:44:01.869Z,100968.28
2019-05-21T00:46:34.452Z,100964.32
2019-05-21T00:49:06.720Z,100971.73
2019-05-21T00:51:38.934Z,100966.91
2019-05-21T00:54:11.922Z,100959.20
2019-05-21T00:56:44.132Z,100954.84
2019-05-21T00:59:18.218Z,100955.79
2019-05-21T01:01:51.058Z,100949.36
2019-05-21T01:04:23.301Z,100951.71
2019-05-21T01:06:56.034Z,100955.47
2019-05-21T01:09:28.506Z,100959.55
2019-05-21T01:12:04.349Z,100956.39
2019-05-21T01:14:36.603Z,100956.39
2019-05-21T01:17:08.891Z,100967.28
2019-05-21T01:19:41.125Z,100968.91
2019-05-21T01:22:13.509Z,100977.73
2019-05-21T01:24:46.575Z,100979.71
2019-05-21T01:27:19.237Z,100991.80
2019-05-21T01:29:51.571Z,100993.78
2019-05-21T01:32:23.915Z,100990.73
2019-05-21T01:34:56.233Z,100984.88
2019-05-21T01:37:28.456Z,100979.48
2019-05-21T01:40:00.774Z,100983.22
2019-05-21T01:42:32.974Z,100984.71
2019-05-21T01:45:05.177Z,100980.00
2019-05-21T01:47:37.559Z,100988.88
2019-05-21T01:50:10.096Z,100989.70
2019-05-21T01:52:42.361Z,100983.70
2019-05-21T01:55:14.534Z,100971.41
2019-05-21T01:57:46.852Z,100979.48
2019-05-21T02:00:19.143Z,100981.03
2019-05-21T02:02:51.386Z,100978.59
2019-05-21T02:05:32.717Z,100982.59
2019-05-21T02:07:57.908Z,100983.77
2019-05-21T02:10:30.209Z,100979.31
2019-05-21T02:13:02.448Z,100978.24
2019-05-21T02:15:34.896Z,100980.86
2019-05-21T02:18:07.114Z,100981.44
2019-05-21T02:20:39.458Z,100978.84
2019-05-21T02:23:11.744Z,100985.52
2019-05-21T02:25:44.270Z,100982.93
2019-05-21T02:28:16.385Z,100980.34
2019-05-21T02:30:48.562Z,100977.30
2019-05-21T02:33:20.968Z,100977.67
2019-05-21T02:35:54.888Z,100989.08
2019-05-21T02:38:27.337Z,100993.21
2019-05-21T02:40:59.714Z,100992.29
2019-05-21T02:43:32.648Z,100993.15
2019-05-21T02:46:04.910Z,101003.85
2019-05-21T02:48:37.394Z,101005.31
2019-05-21T02:51:09.518Z,101002.17
2019-05-21T02:53:42.033Z,101001.11
2019-05-21T02:56:14.543Z,101006.16
2019-05-21T02:58:46.835Z,101012.59
2019-05-21T03:01:31.730Z,101008.52
2019-05-21T03:04:03.896Z,101007.48
2019-05-21T03:06:36.151Z,101008.09
2019-05-21T03:09:09.563Z,101005.16
2019-05-21T03:11:41.839Z,101003.86
2019-05-21T03:14:14.052Z,101010.46
2019-05-21T03:16:46.345Z,101015.63
2019-05-21T03:19:18.661Z,101009.77
2019-05-21T03:21:50.846Z,101008.36
2019-05-21T03:24:23.219Z,101015.63
2019-05-21T03:26:55.393Z,101023.83
2019-05-21T03:29:27.867Z,101034.70
2019-05-21T03:32:00.020Z,101034.84
2019-05-21T03:34:32.656Z,101037.52
2019-05-21T03:37:04.818Z,101034.94
2019-05-21T03:39:37.068Z,101040.66
2019-05-21T03:42:09.272Z,101037.77
2019-05-21T03:44:58.363Z,101030.60
2019-05-21T03:47:15.475Z,101020.02
2019-05-21T03:49:47.855Z,101031.02
2019-05-21T03:52:20.101Z,101027.93
2019-05-21T03:54:52.316Z,101026.27
2019-05-21T03:57:24.510Z,101022.98
2019-05-21T03:59:56.749Z,101024.47
2019-05-21T04:02:30.012Z,101027.95
2019-05-21T04:05:02.245Z,101028.08
2019-05-21T04:07:34.431Z,101027.09
2019-05-21T04:10:09.011Z,101022.25
2019-05-21T04:12:41.120Z,101024.20
2019-05-21T04:15:15.353Z,101028.97
2019-05-21T04:17:56.744Z,101035.16
2019-05-21T04:20:29.030Z,101027.83
2019-05-21T04:23:01.481Z,101033.09
2019-05-21T04:25:33.902Z,101036.30
2019-05-21T04:28:06.356Z,101043.31
2019-05-21T04:30:38.566Z,101039.02
2019-05-21T04:33:11.213Z,101040.02
2019-05-21T04:35:43.926Z,101048.86
2019-05-21T04:38:16.187Z,101051.48
2019-05-21T04:40:48.652Z,101056.10
2019-05-21T04:43:21.157Z,101060.17
2019-05-21T04:45:53.650Z,101070.27
2019-05-21T04:48:25.993Z,101069.31
2019-05-21T04:50:58.231Z,101068.16
2019-05-21T04:53:30.482Z,101074.47
2019-05-21T04:56:02.806Z,101073.64
2019-05-21T04:58:34.916Z,101079.31
2019-05-21T05:01:07.205Z,101077.34
2019-05-21T05:03:39.441Z,101075.62
2019-05-21T05:06:11.611Z,101074.14
2019-05-21T05:08:44.077Z,101077.05
2019-05-21T05:11:19.456Z,101080.70
2019-05-21T05:13:52.017Z,101085.31
2019-05-21T05:16:24.281Z,101082.09
2019-05-21T05:18:56.498Z,101087.29
2019-05-21T05:21:28.775Z,101077.87
2019-05-21T05:24:01.019Z,101082.84
2019-05-21T05:26:33.220Z,101080.94
2019-05-21T05:29:05.623Z,101079.67
2019-05-21T05:31:37.893Z,101078.07
2019-05-21T05:34:10.102Z,101075.38
2019-05-21T05:36:42.722Z,101069.95
2019-05-21T05:39:14.867Z,101078.73
2019-05-21T05:41:47.189Z,101077.23
2019-05-21T05:44:19.379Z,101070.56
2019-05-21T05:46:51.557Z,101068.78
2019-05-21T05:49:29.448Z,101070.43
2019-05-21T05:52:01.686Z,101072.62
2019-05-21T05:54:34.197Z,101070.94
2019-05-21T05:57:06.448Z,101074.55
2019-05-21T05:59:38.810Z,101067.08
2019-05-21T06:02:10.964Z,101062.64
2019-05-21T06:04:43.350Z,101061.32
2019-05-21T06:07:15.533Z,101059.19
2019-05-21T06:09:47.754Z,101052.34
2019-05-21T06:12:20.142Z,101054.55
2019-05-21T06:14:52.475Z,101051.69
2019-05-21T06:17:24.840Z,101045.88
2019-05-21T06:19:57.332Z,101050.78
2019-05-21T06:22:29.438Z,101040.95
2019-05-21T06:25:01.895Z,101041.70
2019-05-21T06:27:34.183Z,101032.77
2019-05-21T06:30:06.955Z,101043.47
2019-05-21T06:32:39.155Z,101043.59
2019-05-21T06:35:11.347Z,101047.13
2019-05-21T06:37:43.587Z,101047.66
2019-05-21T06:40:16.124Z,101054.14
2019-05-21T06:42:48.666Z,101059.34
2019-05-21T06:45:21.804Z,101056.16
2019-05-21T06:47:54.124Z,101058.39
2019-05-21T06:50:26.268Z,101060.31
2019-05-21T06:52:58.603Z,101057.22
2019-05-21T06:55:30.907Z,101061.77
2019-05-21T06:58:03.106Z,101065.70
2019-05-21T07:00:38.458Z,101069.04
2019-05-21T07:03:12.754Z,101084.57
2019-05-21T07:05:58.120Z,101085.08
2019-05-21T07:08:33.684Z,101091.45
2019-05-21T07:10:53.087Z,101082.53
2019-05-21T07:13:25.237Z,101090.70
2019-05-21T07:15:58.699Z,101091.68
2019-05-21T07:18:31.031Z,101083.23
2019-05-21T07:21:03.220Z,101083.67
2019-05-21T07:23:35.455Z,101088.21
2019-05-21T07:26:07.821Z,101090.11
2019-05-21T07:28:40.177Z,101095.20
2019-05-21T07:31:12.442Z,101096.84
2019-05-21T07:33:44.694Z,101096.42
2019-05-21T07:36:17.194Z,101104.36
2019-05-21T07:38:53.730Z,101106.17
2019-05-21T07:41:23.189Z,101108.64
2019-05-21T07:43:55.462Z,101101.72
2019-05-21T07:46:27.678Z,101114.52
2019-05-21T07:48:59.850Z,101105.58
2019-05-21T07:51:32.135Z,101106.38
2019-05-21T07:54:04.413Z,101100.67
2019-05-21T07:56:36.681Z,101094.02
2019-05-21T07:59:09.018Z,101094.20
2019-05-21T08:01:41.205Z,101088.70
2019-05-21T08:04:13.458Z,101086.06
2019-05-21T08:06:45.796Z,101085.00
2019-05-21T08:09:18.119Z,101085.14
2019-05-21T08:11:50.538Z,101076.89
2019-05-21T08:14:23.157Z,101085.38
2019-05-21T08:16:58.661Z,101088.34
2019-05-21T08:19:31.431Z,101090.97
2019-05-21T08:22:03.871Z,101097.10
2019-05-21T08:24:36.159Z,101101.20
2019-05-21T08:27:08.537Z,101099.27
2019-05-21T08:29:40.860Z,101101.41
2019-05-21T08:32:13.079Z,101101.13
2019-05-21T08:34:45.389Z,101101.79
2019-05-21T08:37:17.596Z,101110.63
2019-05-21T08:39:50.346Z,101101.26
2019-05-21T08:42:22.562Z,101094.56
2019-05-21T08:44:54.884Z,101094.72
2019-05-21T08:47:27.278Z,101093.89
2019-05-21T08:49:59.516Z,101089.00
2019-05-21T08:52:31.754Z,101087.78
2019-05-21T08:55:03.983Z,101078.84
2019-05-21T08:57:36.305Z,101073.95
2019-05-21T09:00:12.853Z,101074.16
2019-05-21T09:02:45.092Z,101066.84
2019-05-21T09:05:17.335Z,101070.31
2019-05-21T09:07:53.472Z,101063.80
2019-05-21T09:10:23.938Z,101063.62
2019-05-21T09:12:56.252Z,101058.31
2019-05-21T09:15:28.412Z,101048.78
2019-05-21T09:18:00.636Z,101042.72
2019-05-21T09:20:32.951Z,101043.72
2019-05-21T09:23:05.746Z,101046.17
2019-05-21T09:25:38.652Z,101040.48
2019-05-21T09:28:10.778Z,101047.80
2019-05-21T09:30:43.059Z,101045.36
2019-05-21T09:33:15.505Z,101053.09
2019-05-21T09:35:47.723Z,101052.67
2019-05-21T09:38:20.010Z,101047.22
2019-05-21T09:40:52.583Z,101049.05
2019-05-21T09:43:24.855Z,101040.92
2019-05-21T09:45:57.037Z,101036.64
2019-05-21T09:48:29.282Z,101036.41
2019-05-21T09:51:01.500Z,101043.13
2019-05-21T09:53:33.932Z,101040.50
2019-05-21T09:56:28.199Z,101043.93
2019-05-21T09:59:02.403Z,101052.27
2019-05-21T10:01:40.196Z,101059.97
2019-05-21T10:04:12.404Z,101056.34
2019-05-21T10:06:44.823Z,101054.88
2019-05-21T10:09:18.593Z,101055.09
2019-05-21T10:11:53.445Z,101052.25
2019-05-21T10:14:25.571Z,101057.69
2019-05-21T10:16:58.036Z,101058.73
2019-05-21T10:19:30.300Z,101064.00
2019-05-21T10:22:02.858Z,101064.63
2019-05-21T10:24:35.287Z,101056.30
2019-05-21T10:27:07.557Z,101060.98
2019-05-21T10:29:42.709Z,101055.09
2019-05-21T10:32:14.967Z,101060.78
2019-05-21T10:34:47.141Z,101061.58
2019-05-21T10:37:19.446Z,101054.27
2019-05-21T10:39:51.719Z,101065.04
2019-05-21T10:42:24.002Z,101054.47
2019-05-21T10:44:56.221Z,101052.62
2019-05-21T10:47:28.938Z,101050.62
2019-05-21T10:50:01.222Z,101063.00
2019-05-21T10:52:33.623Z,101055.89
2019-05-21T10:55:06.088Z,101056.89
2019-05-21T10:57:38.330Z,101052.42
2019-05-21T11:00:14.001Z,101053.25
2019-05-21T11:02:51.545Z,101041.89
2019-05-21T11:05:35.899Z,101032.14
2019-05-21T11:08:25.068Z,101038.03
2019-05-21T11:10:42.684Z,101031.73
2019-05-21T11:13:14.937Z,101020.18
2019-05-21T11:15:47.192Z,101018.16
2019-05-21T11:18:19.333Z,101027.50
2019-05-21T11:20:51.925Z,101010.66
2019-05-21T11:23:24.247Z,101010.85
2019-05-21T11:25:56.543Z,101011.05
2019-05-21T11:28:29.039Z,101017.72
2019-05-21T11:31:01.670Z,101016.70
2019-05-21T11:33:34.188Z,101009.18
2019-05-21T11:36:06.702Z,101028.89
2019-05-21T11:38:40.352Z,101031.73
2019-05-21T11:41:13.249Z,101044.74
2019-05-21T11:43:45.786Z,101040.50
2019-05-21T11:46:18.038Z,101044.36
2019-05-21T11:48:50.766Z,101042.74
2019-05-21T11:51:23.339Z,101040.11
2019-05-21T11:53:56.405Z,101045.78
2019-05-21T11:56:28.852Z,101046.20
2019-05-21T11:59:01.048Z,101040.70
2019-05-21T12:01:33.395Z,101034.19
2019-05-21T12:04:05.771Z,101042.72
2019-05-21T12:06:37.895Z,101022.20
2019-05-21T12:09:11.082Z,101033.16
2019-05-21T12:11:43.227Z,101013.05
2019-05-21T12:14:15.403Z,101005.16
2019-05-21T12:16:47.685Z,101004.53
2019-05-21T12:19:19.871Z,100997.83
2019-05-21T12:21:52.134Z,101004.34
2019-05-21T12:24:27.469Z,100996.39
2019-05-21T12:26:58.310Z,101006.19
2019-05-21T12:29:34.077Z,101008.39
2019-05-21T12:32:04.804Z,101005.16
2019-05-21T12:34:39.030Z,101002.10
2019-05-21T12:37:10.955Z,100997.61
2019-05-21T12:39:43.186Z,101006.34
2019-05-21T12:42:16.126Z,100998.83
2019-05-21T12:44:48.286Z,100994.33
2019-05-21T12:47:20.854Z,100994.33
2019-05-21T12:49:53.306Z,100993.53
2019-05-21T12:52:25.592Z,101000.86
2019-05-21T12:54:57.794Z,100997.83
2019-05-21T12:57:30.114Z,100995.80
2019-05-21T13:00:02.278Z,100990.51
2019-05-21T13:02:34.554Z,100990.30
2019-05-21T13:05:10.903Z,100981.38
2019-05-21T13:07:41.229Z,100988.08
2019-05-21T13:10:14.245Z,100978.33
2019-05-21T13:12:46.474Z,100977.13
2019-05-21T13:15:18.908Z,100973.45
2019-05-21T13:17:51.453Z,100971.02
2019-05-21T13:20:23.990Z,100977.72
2019-05-21T13:22:57.646Z,100972.22
2019-05-21T13:25:29.902Z,100972.20
2019-05-21T13:28:02.207Z,100973.61
2019-05-21T13:30:34.748Z,100982.95
2019-05-21T13:33:07.228Z,100983.99
2019-05-21T13:35:39.609Z,100977.50
2019-05-21T13:38:13.547Z,100971.41
2019-05-21T13:40:46.846Z,100978.12
2019-05-21T13:43:21.158Z,100977.52
2019-05-21T13:45:53.041Z,100965.72
2019-05-21T13:48:25.438Z,100961.87
2019-05-21T13:50:59.854Z,100957.60
2019-05-21T13:53:32.064Z,100963.70
2019-05-21T13:56:04.415Z,100960.03
2019-05-21T13:58:36.644Z,100956.38
2019-05-21T14:01:09.702Z,100955.80
2019-05-21T14:03:41.919Z,100963.50
2019-05-21T14:06:14.471Z,100961.08
2019-05-21T14:08:46.779Z,100951.14
2019-05-21T14:11:20.336Z,100949.72
2019-05-21T14:13:52.663Z,100955.41
2019-05-21T14:16:24.982Z,100951.14
2019-05-21T14:18:57.215Z,100951.52
2019-05-21T14:21:29.380Z,100948.30
2019-05-21T14:24:01.670Z,100948.30
2019-05-21T14:26:33.865Z,100941.58
2019-05-21T14:29:06.385Z,100946.46
2019-05-21T14:31:38.805Z,100949.10
2019-05-21T14:34:11.053Z,100949.10
2019-05-21T14:36:43.392Z,100949.70
2019-05-21T14:39:17.750Z,100947.28
2019-05-21T14:41:50.299Z,100946.25
2019-05-21T14:44:22.525Z,100943.83
2019-05-21T14:46:54.783Z,100932.61
2019-05-21T14:49:27.045Z,100934.66
2019-05-21T14:51:59.369Z,100934.45
2019-05-21T14:54:33.909Z,100939.31
2019-05-21T14:57:12.989Z,100930.58
2019-05-21T14:59:45.747Z,100925.11
2019-05-21T15:02:18.066Z,100929.96
2019-05-21T15:04:50.805Z,100923.07
2019-05-21T15:07:23.431Z,100915.77
2019-05-21T15:09:55.818Z,100918.02
2019-05-21T15:12:28.214Z,100917.59
2019-05-21T15:15:00.368Z,100923.69
2019-05-21T15:17:33.256Z,100921.23
2019-05-21T15:20:09.305Z,100929.97
2019-05-21T15:22:42.023Z,100929.55
2019-05-21T15:25:14.317Z,100925.91
2019-05-21T15:27:46.550Z,100927.33
2019-05-21T15:30:18.766Z,100926.70
2019-05-21T15:32:51.173Z,100922.03
2019-05-21T15:35:23.537Z,100924.70
2019-05-21T15:37:55.929Z,100925.08
2019-05-21T15:40:28.429Z,100924.08
2019-05-21T15:43:00.726Z,100927.92
2019-05-21T15:45:33.111Z,100929.76
2019-05-21T15:48:05.333Z,100926.70
2019-05-21T15:50:37.461Z,100933.81
2019-05-21T15:53:10.480Z,100931.38
2019-05-21T15:55:42.932Z,100927.92
2019-05-21T15:58:15.071Z,100928.13
2019-05-21T16:00:47.358Z,100924.66
2019-05-21T16:03:19.912Z,100924.03
2019-05-21T16:05:52.464Z,100924.21
2019-05-21T16:08:26.739Z,100929.89
2019-05-21T16:11:00.991Z,100928.05
2019-05-21T16:13:33.590Z,100927.41
2019-05-21T16:16:05.936Z,100926.40
2019-05-21T16:18:38.179Z,100926.16
2019-05-21T16:21:10.515Z,100928.59
2019-05-21T16:23:43.100Z,100931.19
2019-05-21T16:26:15.725Z,100928.75
2019-05-21T16:28:47.978Z,100927.52
2019-05-21T16:31:20.286Z,100933.77
2019-05-21T16:33:52.547Z,100933.09
2019-05-21T16:36:24.833Z,100937.12
2019-05-21T16:38:57.249Z,100929.60
2019-05-21T16:41:43.480Z,100935.67
2019-05-21T16:44:03.598Z,100928.36
2019-05-21T16:46:36.308Z,100933.18
2019-05-21T16:49:09.205Z,100938.22
2019-05-21T16:51:43.564Z,100934.16
2019-05-21T16:54:15.853Z,100933.34
2019-05-21T16:56:49.825Z,100930.46
2019-05-21T16:59:22.210Z,100930.86
2019-05-21T17:01:54.968Z,100932.48
2019-05-21T17:04:27.669Z,100929.84
2019-05-21T17:07:00.139Z,100922.91
2019-05-21T17:09:32.507Z,100922.70
2019-05-21T17:12:05.575Z,100924.52
2019-05-21T17:14:38.065Z,100931.20
2019-05-21T17:17:10.510Z,100931.61
2019-05-21T17:19:42.977Z,100934.45
2019-05-21T17:22:15.196Z,100928.78
2019-05-21T17:24:47.455Z,100935.06
2019-05-21T17:27:19.611Z,100939.69
2019-05-21T17:29:52.043Z,100945.12
2019-05-21T17:32:24.313Z,100947.73
2019-05-21T17:34:56.608Z,100951.81
2019-05-21T17:37:28.948Z,100953.59
2019-05-21T17:40:01.664Z,100949.13
2019-05-21T17:42:34.166Z,100955.20
2019-05-21T17:45:07.030Z,100957.41
2019-05-21T17:47:39.385Z,100956.97
2019-05-21T17:50:12.369Z,100962.25
2019-05-21T17:52:45.071Z,100971.12
2019-05-21T17:55:17.846Z,100970.11
2019-05-21T17:57:50.258Z,100973.94
2019-05-21T18:00:29.126Z,100969.25
2019-05-21T18:03:03.814Z,100981.61
2019-05-21T18:05:36.042Z,100982.17
2019-05-21T18:08:08.417Z,100988.39
2019-05-21T18:10:40.921Z,100995.66
2019-05-21T18:13:13.733Z,100996.25
2019-05-21T18:15:46.332Z,100996.81
2019-05-21T18:18:18.955Z,101000.41
2019-05-21T18:20:51.489Z,101006.66
2019-05-21T18:23:23.710Z,101009.65
2019-05-21T18:25:55.956Z,101010.45
2019-05-21T18:28:28.358Z,101005.16
2019-05-21T18:31:00.686Z,101006.72
2019-05-21T18:33:32.899Z,101004.48
2019-05-21T18:36:05.356Z,101008.29
2019-05-21T18:38:37.875Z,101010.69
2019-05-21T18:41:10.108Z,101010.88
2019-05-21T18:43:42.951Z,101018.50
2019-05-21T18:46:15.360Z,101019.12
2019-05-21T18:48:47.694Z,101021.30
2019-05-21T18:51:20.362Z,101026.96
2019-05-21T18:53:52.765Z,101015.42
2019-05-21T18:56:25.395Z,101017.45
2019-05-21T18:58:58.500Z,101020.06
2019-05-21T19:01:31.169Z,101016.80
2019-05-21T19:04:03.568Z,101014.15
2019-05-21T19:06:35.939Z,101013.10
2019-05-21T19:09:10.310Z,101016.95
2019-05-21T19:11:42.556Z,101021.13
2019-05-21T19:14:14.790Z,101013.64
2019-05-21T19:16:47.131Z,101010.96
2019-05-21T19:19:20.923Z,101010.55
2019-05-21T19:21:53.395Z,101016.15
2019-05-21T19:24:25.651Z,101014.11
2019-05-21T19:26:57.820Z,101015.67
2019-05-21T19:29:30.172Z,101015.86
2019-05-21T19:32:02.390Z,101012.80
2019-05-21T19:34:34.657Z,101008.95
2019-05-21T19:37:06.922Z,101013.81
2019-05-21T19:39:39.400Z,101014.18
2019-05-21T19:42:11.804Z,101013.72
2019-05-21T19:44:44.080Z,101014.50
2019-05-21T19:47:16.348Z,101015.92
2019-05-21T19:49:48.644Z,101010.41
2019-05-21T19:52:22.923Z,101015.27
2019-05-21T19:54:55.251Z,101008.37
2019-05-21T19:57:29.788Z,101011.16
2019-05-21T20:00:02.393Z,101009.89
2019-05-21T20:02:35.418Z,101010.67
2019-05-21T20:05:08.633Z,101002.95
2019-05-21T20:07:42.772Z,101010.20
2019-05-21T20:10:16.155Z,101018.83
2019-05-21T20:12:48.665Z,101022.44
2019-05-21T20:15:22.398Z,101016.73
2019-05-21T20:18:06.934Z,101010.03
2019-05-21T20:20:30.468Z,101005.35
2019-05-21T20:23:08.320Z,101007.77
2019-05-21T20:25:53.789Z,101009.33
2019-05-21T20:28:14.150Z,101012.11
2019-05-21T20:30:47.222Z,101004.60
2019-05-21T20:33:20.759Z,101007.60
2019-05-21T20:35:54.051Z,101014.62
2019-05-21T20:38:27.868Z,101004.06
2019-05-21T20:41:01.103Z,101010.50
2019-05-21T20:43:33.602Z,101007.78
2019-05-21T20:46:07.868Z,101005.97
2019-05-21T20:48:40.982Z,101006.94
2019-05-21T20:51:13.684Z,101010.16
2019-05-21T20:53:46.633Z,101010.30
2019-05-21T20:56:19.187Z,101012.49
2019-05-21T20:58:51.490Z,101008.39
2019-05-21T21:01:25.882Z,101010.20
2019-05-21T21:03:58.418Z,101007.98
2019-05-21T21:06:35.280Z,101009.97
2019-05-21T21:09:10.770Z,101012.36
2019-05-21T21:11:43.501Z,101015.96
2019-05-21T21:14:18.365Z,101022.14
2019-05-21T21:16:50.868Z,101016.05
2019-05-21T21:19:23.525Z,101023.28
2019-05-21T21:21:56.047Z,101016.96
2019-05-21T21:24:28.444Z,101018.32
2019-05-21T21:27:00.895Z,101019.52
2019-05-21T21:29:33.187Z,101021.09
2019-05-21T21:32:05.914Z,101017.83
2019-05-21T21:34:38.212Z,101016.58
2019-05-21T21:37:10.783Z,101014.33
2019-05-21T21:39:43.037Z,101012.34
2019-05-21T21:42:16.251Z,101005.50
2019-05-21T21:44:49.377Z,101004.09
2019-05-21T21:47:22.546Z,101004.89
2019-05-21T21:49:55.261Z,100991.73
2019-05-21T21:52:28.315Z,100988.91
2019-05-21T21:55:02.528Z,100985.06
2019-05-21T21:57:34.816Z,100983.43
2019-05-21T22:00:18.569Z,100980.16
2019-05-21T22:02:51.310Z,100975.73
2019-05-21T22:05:25.122Z,100973.88
2019-05-21T22:07:58.089Z,100968.81
2019-05-21T22:10:32.203Z,100967.17
2019-05-21T22:13:05.226Z,100960.95
2019-05-21T22:15:37.780Z,100965.18
2019-05-21T22:18:10.510Z,100958.52
2019-05-21T22:20:43.742Z,100959.92
2019-05-21T22:23:16.368Z,100965.58
2019-05-21T22:25:48.703Z,100959.92
2019-05-21T22:28:21.969Z,100966.38
2019-05-21T22:30:56.647Z,100958.52
2019-05-21T22:33:29.319Z,100957.09
2019-05-21T22:36:01.659Z,100955.87
2019-05-21T22:38:33.945Z,100962.14
2019-05-21T22:41:06.379Z,100965.13
2019-05-21T22:43:39.216Z,100967.73
2019-05-21T22:46:11.424Z,100967.25
2019-05-21T22:48:43.607Z,100960.81
2019-05-21T22:51:15.842Z,100956.57
2019-05-21T22:53:48.149Z,100960.81
2019-05-21T22:56:20.346Z,100959.39
2019-05-21T22:58:52.760Z,100960.36
2019-05-21T23:01:26.631Z,100964.16
2019-05-21T23:03:59.547Z,100971.83
2019-05-21T23:06:31.966Z,100967.14
2019-05-21T23:09:05.796Z,100975.97
2019-05-21T23:11:38.322Z,100968.50
2019-05-21T23:14:10.854Z,100967.00
2019-05-21T23:16:43.156Z,100966.36
2019-05-21T23:19:16.535Z,100970.31
2019-05-21T23:21:49.822Z,100964.61
2019-05-21T23:24:24.053Z,100963.11
2019-05-21T23:26:56.447Z,100958.24
2019-05-21T23:29:28.985Z,100962.03
2019-05-21T23:32:01.636Z,100962.20
2019-05-21T23:34:34.866Z,100961.14
2019-05-21T23:37:08.943Z,100966.14
2019-05-21T23:39:42.614Z,100957.23
2019-05-21T23:42:28.567Z,100959.61
2019-05-21T23:44:49.582Z,100951.30
2019-05-21T23:47:22.206Z,100946.84
2019-05-21T23:49:55.065Z,100946.84
2019-05-21T23:52:27.805Z,100939.79
2019-05-21T23:55:00.950Z,100939.18
2019-05-21T23:57:37.575Z,100936.36
